createdAt,value
2018-02-17T00:00:28.784Z,0
2018-02-17T00:01:38.681Z,0
2018-02-17T00:02:49.075Z,0
2018-02-17T00:03:59.274Z,0
2018-02-17T00:05:09.212Z,0
2018-02-17T00:06:19.116Z,0
2018-02-17T00:07:29.020Z,0
2018-02-17T00:08:38.901Z,0
2018-02-17T00:09:49.114Z,0
2018-02-17T00:10:59.251Z,0
2018-02-17T00:12:09.025Z,0
2018-02-17T00:13:18.595Z,0
2018-02-17T00:14:28.553Z,0
2018-02-17T00:15:38.409Z,0
2018-02-17T00:16:48.538Z,0
2018-02-17T00:17:58.651Z,0
2018-02-17T00:19:08.534Z,0
2018-02-17T00:20:18.694Z,0
2018-02-17T00:21:28.736Z,0
2018-02-17T00:22:39.042Z,0
2018-02-17T00:23:49.201Z,0
2018-02-17T00:24:59.377Z,0
2018-02-17T00:26:09.539Z,0
2018-02-17T00:27:19.739Z,0
2018-02-17T00:28:29.658Z,0
2018-02-17T00:29:39.798Z,0
2018-02-17T00:30:49.788Z,0
2018-02-17T00:31:59.775Z,0
2018-02-17T00:33:09.939Z,0
2018-02-17T00:34:19.887Z,0
2018-02-17T00:35:30.009Z,0
2018-02-17T00:36:40.169Z,0
2018-02-17T00:37:50.397Z,0
2018-02-17T00:39:00.663Z,0
2018-02-17T00:40:10.837Z,0
2018-02-17T00:41:21.026Z,0
2018-02-17T00:42:31.149Z,0
2018-02-17T00:43:41.105Z,0
2018-02-17T00:44:51.300Z,0
2018-02-17T00:46:01.062Z,0
2018-02-17T00:47:11.388Z,0
2018-02-17T00:48:21.556Z,0
2018-02-17T00:49:31.172Z,0
2018-02-17T00:50:41.394Z,0
2018-02-17T00:51:51.284Z,0
2018-02-17T00:53:01.475Z,0
2018-02-17T00:54:12.376Z,0
2018-02-17T00:55:22.496Z,0
2018-02-17T00:56:32.403Z,0
2018-02-17T00:57:42.547Z,0
2018-02-17T00:58:52.674Z,0
2018-02-17T01:00:02.821Z,0
2018-02-17T01:01:12.976Z,0
2018-02-17T01:02:23.130Z,0
2018-02-17T01:03:33.285Z,0
2018-02-17T01:04:44.386Z,0
2018-02-17T01:05:54.262Z,0
2018-02-17T01:07:04.399Z,0
2018-02-17T01:08:14.520Z,0
2018-02-17T01:09:24.643Z,0
2018-02-17T01:10:34.809Z,0
2018-02-17T01:11:44.689Z,0
2018-02-17T01:12:54.844Z,0
2018-02-17T01:14:04.613Z,0
2018-02-17T01:15:14.256Z,0
2018-02-17T01:16:24.396Z,0
2018-02-17T01:17:34.502Z,0
2018-02-17T01:18:44.637Z,0
2018-02-17T01:19:54.793Z,0
2018-02-17T01:21:04.221Z,0
2018-02-17T01:22:14.395Z,0
2018-02-17T01:23:24.517Z,0
2018-02-17T01:24:34.270Z,0
2018-02-17T01:25:44.393Z,0
2018-02-17T01:26:54.258Z,0
2018-02-17T01:28:04.132Z,0
2018-02-17T01:29:13.992Z,0
2018-02-17T01:30:23.863Z,0
2018-02-17T01:31:33.744Z,0
2018-02-17T01:32:44.011Z,0
2018-02-17T01:33:54.138Z,0
2018-02-17T01:35:03.972Z,0
2018-02-17T01:36:14.220Z,0
2018-02-17T01:37:24.362Z,0
2018-02-17T01:38:34.506Z,0
2018-02-17T01:39:44.662Z,0
2018-02-17T01:40:54.432Z,0
2018-02-17T01:42:04.571Z,0
2018-02-17T01:43:14.697Z,0
2018-02-17T01:44:24.555Z,0
2018-02-17T01:45:34.415Z,0
2018-02-17T01:46:44.752Z,0
2018-02-17T01:47:54.656Z,0
2018-02-17T01:49:04.536Z,0
2018-02-17T01:50:14.662Z,0
2018-02-17T01:51:24.810Z,0
2018-02-17T01:52:34.960Z,0
2018-02-17T01:53:45.127Z,0
2018-02-17T01:54:55.072Z,0
2018-02-17T01:56:04.993Z,0
2018-02-17T01:57:15.164Z,0
2018-02-17T01:58:25.134Z,0
2018-02-17T01:59:35.304Z,0
2018-02-17T02:00:46.044Z,0
2018-02-17T02:01:55.937Z,0
2018-02-17T02:03:06.053Z,0
2018-02-17T02:04:16.191Z,0
2018-02-17T02:05:26.413Z,0
2018-02-17T02:06:36.697Z,0
2018-02-17T02:07:47.047Z,0
2018-02-17T02:08:56.795Z,0
2018-02-17T02:10:06.917Z,0
2018-02-17T02:11:16.771Z,0
2018-02-17T02:12:26.527Z,0
2018-02-17T02:13:36.128Z,0
2018-02-17T02:14:45.637Z,0
2018-02-17T02:15:55.463Z,0
2018-02-17T02:17:05.364Z,0
2018-02-17T02:18:15.514Z,0
2018-02-17T02:19:25.635Z,0
2018-02-17T02:20:35.801Z,0
2018-02-17T02:21:46.038Z,0
2018-02-17T02:22:55.902Z,0
2018-02-17T02:24:05.652Z,0
2018-02-17T02:25:15.402Z,0
2018-02-17T02:26:25.634Z,0
2018-02-17T02:27:35.142Z,0
2018-02-17T02:28:45.298Z,0
2018-02-17T02:29:55.080Z,0
2018-02-17T02:31:05.166Z,0
2018-02-17T02:32:15.331Z,0
2018-02-17T02:33:25.088Z,0
2018-02-17T02:34:34.952Z,0
2018-02-17T02:35:44.856Z,0
2018-02-17T02:36:55.036Z,0
2018-02-17T02:38:04.938Z,0
2018-02-17T02:39:15.117Z,0
2018-02-17T02:40:24.993Z,0
2018-02-17T02:41:34.765Z,0
2018-02-17T02:42:44.909Z,0
2018-02-17T02:43:55.068Z,0
2018-02-17T02:45:05.191Z,0
2018-02-17T02:46:15.107Z,0
2018-02-17T02:47:24.744Z,0
2018-02-17T02:48:34.881Z,0
2018-02-17T02:49:44.866Z,0
2018-02-17T02:50:54.976Z,0
2018-02-17T02:52:05.122Z,0
2018-02-17T02:53:15.296Z,0
2018-02-17T02:54:25.149Z,0
2018-02-17T02:55:35.275Z,0
2018-02-17T02:56:45.423Z,0
2018-02-17T02:57:55.618Z,0
2018-02-17T02:59:05.146Z,0
2018-02-17T03:00:15.246Z,0
2018-02-17T03:01:25.109Z,0
2018-02-17T03:02:34.638Z,0
2018-02-17T03:03:44.794Z,0
2018-02-17T03:04:55.047Z,0
2018-02-17T03:06:05.330Z,0
2018-02-17T03:07:15.538Z,0
2018-02-17T03:08:25.709Z,0
2018-02-17T03:09:35.532Z,0
2018-02-17T03:10:45.688Z,0
2018-02-17T03:11:55.852Z,0
2018-02-17T03:13:05.991Z,0
2018-02-17T03:14:16.156Z,0
2018-02-17T03:15:26.319Z,0
2018-02-17T03:16:36.243Z,0
2018-02-17T03:17:46.473Z,0
2018-02-17T03:18:56.480Z,0
2018-02-17T03:20:07.210Z,0
2018-02-17T03:21:17.325Z,0
2018-02-17T03:22:27.322Z,0
2018-02-17T03:23:37.288Z,0
2018-02-17T03:24:47.051Z,0
2018-02-17T03:25:56.803Z,0
2018-02-17T03:27:06.925Z,0
2018-02-17T03:28:16.771Z,0
2018-02-17T03:29:26.828Z,0
2018-02-17T03:30:36.962Z,0
2018-02-17T03:31:46.858Z,0
2018-02-17T03:32:56.961Z,0
2018-02-17T03:34:06.561Z,0
2018-02-17T03:35:16.183Z,0
2018-02-17T03:36:26.295Z,0
2018-02-17T03:37:36.399Z,0
2018-02-17T03:38:46.566Z,0
2018-02-17T03:39:56.732Z,0
2018-02-17T03:41:06.892Z,0
2018-02-17T03:42:17.005Z,0
2018-02-17T03:43:27.140Z,0
2018-02-17T03:44:36.993Z,0
2018-02-17T03:45:46.706Z,0
2018-02-17T03:46:56.833Z,0
2018-02-17T03:48:06.711Z,0
2018-02-17T03:49:16.903Z,0
2018-02-17T03:50:27.036Z,0
2018-02-17T03:51:37.155Z,0
2018-02-17T03:52:46.922Z,0
2018-02-17T03:53:56.518Z,0
2018-02-17T03:55:06.790Z,0
2018-02-17T03:56:16.654Z,0
2018-02-17T03:57:26.509Z,0
2018-02-17T03:58:36.414Z,0
2018-02-17T03:59:46.757Z,0
2018-02-17T04:00:56.352Z,0
2018-02-17T04:02:05.869Z,0
2018-02-17T04:03:15.979Z,0
2018-02-17T04:04:26.121Z,0
2018-02-17T04:05:36.011Z,0
2018-02-17T04:06:45.909Z,0
2018-02-17T04:07:55.503Z,0
2018-02-17T04:09:05.614Z,0
2018-02-17T04:10:15.465Z,0
2018-02-17T04:11:25.630Z,0
2018-02-17T04:12:35.744Z,0
2018-02-17T04:13:45.879Z,0
2018-02-17T04:14:56.007Z,0
2018-02-17T04:16:06.133Z,0
2018-02-17T04:17:16.045Z,0
2018-02-17T04:18:26.301Z,0
2018-02-17T04:19:36.436Z,0
2018-02-17T04:20:46.754Z,0
2018-02-17T04:21:56.642Z,0
2018-02-17T04:23:06.763Z,0
2018-02-17T04:24:16.942Z,0
2018-02-17T04:25:27.082Z,0
2018-02-17T04:26:37.178Z,0
2018-02-17T04:27:47.298Z,0
2018-02-17T04:28:57.246Z,0
2018-02-17T04:30:06.862Z,0
2018-02-17T04:31:16.624Z,0
2018-02-17T04:32:26.732Z,0
2018-02-17T04:33:36.601Z,0
2018-02-17T04:34:46.258Z,0
2018-02-17T04:35:56.158Z,0
2018-02-17T04:37:06.389Z,0
2018-02-17T04:38:16.267Z,0
2018-02-17T04:39:26.457Z,0
2018-02-17T04:40:36.325Z,0
2018-02-17T04:41:46.081Z,0
2018-02-17T04:42:56.232Z,0
2018-02-17T04:44:06.393Z,0
2018-02-17T04:45:16.097Z,0
2018-02-17T04:46:25.993Z,0
2018-02-17T04:47:35.855Z,0
2018-02-17T04:48:45.973Z,0
2018-02-17T04:49:56.092Z,0
2018-02-17T04:51:06.222Z,0
2018-02-17T04:52:15.978Z,0
2018-02-17T04:53:25.863Z,0
2018-02-17T04:54:35.998Z,0
2018-02-17T04:55:45.801Z,0
2018-02-17T04:56:55.584Z,0
2018-02-17T04:58:05.716Z,0
2018-02-17T04:59:15.850Z,0
2018-02-17T05:00:25.701Z,0
2018-02-17T05:01:35.652Z,0
2018-02-17T05:02:45.858Z,0
2018-02-17T05:03:55.640Z,0
2018-02-17T05:05:05.778Z,0
2018-02-17T05:06:15.851Z,0
2018-02-17T05:07:25.956Z,0
2018-02-17T05:08:35.823Z,0
2018-02-17T05:09:45.946Z,0
2018-02-17T05:10:56.057Z,0
2018-02-17T05:12:05.919Z,0
2018-02-17T05:13:16.089Z,0
2018-02-17T05:14:26.201Z,0
2018-02-17T05:15:36.160Z,0
2018-02-17T05:16:46.262Z,0
2018-02-17T05:17:56.390Z,0
2018-02-17T05:19:06.568Z,0
2018-02-17T05:20:16.074Z,0
2018-02-17T05:21:25.995Z,0
2018-02-17T05:22:36.229Z,0
2018-02-17T05:23:46.115Z,0
2018-02-17T05:24:56.378Z,0
2018-02-17T05:26:06.246Z,0
2018-02-17T05:27:16.367Z,0
2018-02-17T05:28:26.474Z,0
2018-02-17T05:29:36.336Z,0
2018-02-17T05:30:46.511Z,0
2018-02-17T05:31:56.630Z,0
2018-02-17T05:33:07.062Z,0
2018-02-17T05:34:17.183Z,0
2018-02-17T05:35:27.382Z,0
2018-02-17T05:36:36.915Z,0
2018-02-17T05:37:47.044Z,0
2018-02-17T05:38:56.906Z,0
2018-02-17T05:40:07.092Z,0
2018-02-17T05:41:17.167Z,0
2018-02-17T05:42:27.271Z,0
2018-02-17T05:43:37.468Z,0
2018-02-17T05:44:47.604Z,0
2018-02-17T05:45:57.374Z,0
2018-02-17T05:47:07.610Z,0
2018-02-17T05:48:17.741Z,0
2018-02-17T05:49:27.623Z,0
2018-02-17T05:50:37.796Z,0
2018-02-17T05:51:47.394Z,4
2018-02-17T05:52:57.787Z,0
2018-02-17T05:54:07.661Z,0
2018-02-17T05:55:17.793Z,4
2018-02-17T05:56:27.385Z,4
2018-02-17T05:57:37.334Z,0
2018-02-17T05:58:46.933Z,8
2018-02-17T05:59:56.805Z,4
2018-02-17T06:01:06.920Z,4
2018-02-17T06:02:17.066Z,8
2018-02-17T06:03:26.958Z,8
2018-02-17T06:04:36.601Z,12
2018-02-17T06:05:46.755Z,12
2018-02-17T06:06:56.870Z,20
2018-02-17T06:08:06.741Z,24
2018-02-17T06:09:16.677Z,28
2018-02-17T06:10:26.560Z,32
2018-02-17T06:11:36.527Z,36
2018-02-17T06:12:46.677Z,44
2018-02-17T06:13:56.824Z,56
2018-02-17T06:15:06.478Z,64
2018-02-17T06:16:16.466Z,72
2018-02-17T06:17:26.100Z,80
2018-02-17T06:18:36.244Z,96
2018-02-17T06:19:46.215Z,108
2018-02-17T06:20:56.368Z,120
2018-02-17T06:22:06.264Z,136
2018-02-17T06:23:16.375Z,148
2018-02-17T06:24:26.075Z,164
2018-02-17T06:25:36.190Z,180
2018-02-17T06:26:46.088Z,200
2018-02-17T06:27:55.994Z,220
2018-02-17T06:29:06.215Z,248
2018-02-17T06:30:16.431Z,272
2018-02-17T06:31:26.645Z,300
2018-02-17T06:32:36.529Z,332
2018-02-17T06:33:45.894Z,364
2018-02-17T06:34:56.016Z,404
2018-02-17T06:36:05.631Z,444
2018-02-17T06:37:15.504Z,484
2018-02-17T06:38:25.355Z,536
2018-02-17T06:39:35.514Z,584
2018-02-17T06:40:46.599Z,636
2018-02-17T06:41:56.745Z,688
2018-02-17T06:43:06.349Z,728
2018-02-17T06:44:16.474Z,768
2018-02-17T06:45:26.588Z,808
2018-02-17T06:46:36.728Z,848
2018-02-17T06:47:46.411Z,892
2018-02-17T06:48:56.417Z,940
2018-02-17T06:50:06.104Z,992
2018-02-17T06:51:16.263Z,1032
2018-02-17T06:52:26.127Z,1076
2018-02-17T06:53:36.256Z,1124
2018-02-17T06:54:46.448Z,1180
2018-02-17T06:55:56.445Z,1240
2018-02-17T06:57:06.591Z,1296
2018-02-17T06:58:16.816Z,1360
2018-02-17T06:59:26.952Z,1428
2018-02-17T07:00:37.071Z,1500
2018-02-17T07:01:46.941Z,1572
2018-02-17T07:02:57.089Z,1660
2018-02-17T07:04:06.961Z,1732
2018-02-17T07:05:16.846Z,1808
2018-02-17T07:06:26.509Z,1876
2018-02-17T07:07:36.371Z,1920
2018-02-17T07:08:46.545Z,1968
2018-02-17T07:09:56.392Z,2020
2018-02-17T07:11:06.510Z,2092
2018-02-17T07:12:16.381Z,2184
2018-02-17T07:13:26.500Z,2284
2018-02-17T07:14:36.694Z,2376
2018-02-17T07:15:46.573Z,2460
2018-02-17T07:16:56.721Z,2512
2018-02-17T07:18:06.590Z,2576
2018-02-17T07:19:16.700Z,2676
2018-02-17T07:20:26.936Z,2784
2018-02-17T07:21:37.157Z,2884
2018-02-17T07:22:47.285Z,2972
2018-02-17T07:23:57.484Z,3068
2018-02-17T07:25:07.671Z,3080
2018-02-17T07:26:17.913Z,3124
2018-02-17T07:27:28.125Z,3196
2018-02-17T07:28:38.321Z,3280
2018-02-17T07:29:48.559Z,3400
2018-02-17T07:30:58.812Z,3592
2018-02-17T07:32:08.404Z,3804
2018-02-17T07:33:18.541Z,3980
2018-02-17T07:34:28.678Z,4048
2018-02-17T07:35:38.815Z,3964
2018-02-17T07:36:49.037Z,4028
2018-02-17T07:37:59.199Z,4188
2018-02-17T07:39:09.419Z,4424
2018-02-17T07:40:19.021Z,4568
2018-02-17T07:41:28.276Z,4628
2018-02-17T07:42:38.096Z,4728
2018-02-17T07:43:48.390Z,4712
2018-02-17T07:44:58.572Z,5156
2018-02-17T07:46:08.346Z,5640
2018-02-17T07:47:18.243Z,5896
2018-02-17T07:48:28.385Z,5732
2018-02-17T07:49:38.237Z,6004
2018-02-17T07:50:48.373Z,6364
2018-02-17T07:51:58.230Z,6464
2018-02-17T07:53:08.363Z,6492
2018-02-17T07:54:18.494Z,6364
2018-02-17T07:55:28.655Z,6612
2018-02-17T07:56:38.604Z,6308
2018-02-17T07:57:48.742Z,6308
2018-02-17T07:58:58.719Z,6452
2018-02-17T08:00:08.358Z,6464
2018-02-17T08:01:18.474Z,6808
2018-02-17T08:02:28.608Z,6668
2018-02-17T08:03:38.500Z,6700
2018-02-17T08:04:48.662Z,6732
2018-02-17T08:05:58.642Z,6436
2018-02-17T08:07:08.789Z,6416
2018-02-17T08:08:18.857Z,6360
2018-02-17T08:09:29.180Z,6500
2018-02-17T08:10:39.052Z,6472
2018-02-17T08:11:49.211Z,6772
2018-02-17T08:12:59.345Z,7080
2018-02-17T08:14:09.501Z,7440
2018-02-17T08:15:19.609Z,7548
2018-02-17T08:16:29.513Z,8540
2018-02-17T08:17:39.479Z,9648
2018-02-17T08:18:49.703Z,9656
2018-02-17T08:19:59.479Z,10140
2018-02-17T08:21:09.603Z,9876
2018-02-17T08:22:19.691Z,8364
2018-02-17T08:23:30.020Z,8560
2018-02-17T08:24:39.852Z,8752
2018-02-17T08:25:49.989Z,8716
2018-02-17T08:26:59.637Z,10168
2018-02-17T08:28:09.839Z,10992
2018-02-17T08:29:20.000Z,11972
2018-02-17T08:30:29.985Z,12080
2018-02-17T08:31:40.131Z,12096
2018-02-17T08:32:50.338Z,11836
2018-02-17T08:34:00.462Z,12056
2018-02-17T08:35:10.734Z,12644
2018-02-17T08:36:20.935Z,11844
2018-02-17T08:37:30.797Z,12832
2018-02-17T08:38:41.026Z,11316
2018-02-17T08:39:51.236Z,11584
2018-02-17T08:41:01.499Z,12032
2018-02-17T08:42:11.656Z,12308
2018-02-17T08:43:21.816Z,13160
2018-02-17T08:44:32.153Z,11120
2018-02-17T08:45:42.358Z,12756
2018-02-17T08:46:52.232Z,12544
2018-02-17T08:48:02.102Z,12284
2018-02-17T08:49:11.995Z,12488
2018-02-17T08:50:21.900Z,12492
2018-02-17T08:51:32.044Z,14016
2018-02-17T08:52:41.825Z,14336
2018-02-17T08:53:51.813Z,13952
2018-02-17T08:55:01.732Z,13204
2018-02-17T08:56:11.884Z,12236
2018-02-17T08:57:22.017Z,11744
2018-02-17T08:58:32.299Z,11156
2018-02-17T08:59:42.112Z,11100
2018-02-17T09:00:52.249Z,11428
2018-02-17T09:02:02.429Z,11780
2018-02-17T09:03:12.222Z,12972
2018-02-17T09:04:22.210Z,12840
2018-02-17T09:05:31.992Z,12016
2018-02-17T09:06:41.605Z,11368
2018-02-17T09:07:51.370Z,11252
2018-02-17T09:09:01.518Z,11392
2018-02-17T09:10:11.656Z,11612
2018-02-17T09:11:21.623Z,12204
2018-02-17T09:12:31.761Z,14624
2018-02-17T09:13:41.923Z,12468
2018-02-17T09:14:51.995Z,12592
2018-02-17T09:16:02.264Z,12136
2018-02-17T09:17:11.809Z,12520
2018-02-17T09:18:21.811Z,13544
2018-02-17T09:19:31.723Z,13824
2018-02-17T09:20:41.230Z,13732
2018-02-17T09:21:51.430Z,13240
2018-02-17T09:23:01.332Z,13476
2018-02-17T09:24:11.510Z,13444
2018-02-17T09:25:21.675Z,13228
2018-02-17T09:26:31.865Z,13504
2018-02-17T09:27:41.483Z,13556
2018-02-17T09:28:51.747Z,14400
2018-02-17T09:30:01.675Z,14656
2018-02-17T09:31:11.620Z,14592
2018-02-17T09:32:21.516Z,15328
2018-02-17T09:33:31.668Z,15296
2018-02-17T09:34:41.384Z,13764
2018-02-17T09:35:51.639Z,13948
2018-02-17T09:37:01.533Z,14496
2018-02-17T09:38:11.727Z,14400
2018-02-17T09:39:21.273Z,14336
2018-02-17T09:40:31.454Z,13856
2018-02-17T09:41:41.736Z,13440
2018-02-17T09:42:51.901Z,13544
2018-02-17T09:44:02.029Z,13952
2018-02-17T09:45:11.919Z,14056
2018-02-17T09:46:22.125Z,15008
2018-02-17T09:47:32.330Z,15456
2018-02-17T09:48:42.522Z,17504
2018-02-17T09:49:52.738Z,19200
2018-02-17T09:51:02.908Z,16832
2018-02-17T09:52:12.728Z,16000
2018-02-17T09:53:22.960Z,16320
2018-02-17T09:54:33.156Z,14112
2018-02-17T09:55:43.292Z,14688
2018-02-17T09:56:53.179Z,13284
2018-02-17T09:58:03.118Z,13260
2018-02-17T09:59:13.280Z,13852
2018-02-17T10:00:23.436Z,13352
2018-02-17T10:01:33.208Z,14240
2018-02-17T10:02:43.097Z,13308
2018-02-17T10:03:52.982Z,13516
2018-02-17T10:05:02.938Z,13988
2018-02-17T10:06:14.088Z,12872
2018-02-17T10:07:24.202Z,12956
2018-02-17T10:08:34.178Z,12720
2018-02-17T10:09:44.329Z,12432
2018-02-17T10:10:54.520Z,12048
2018-02-17T10:12:04.685Z,11816
2018-02-17T10:13:15.052Z,11360
2018-02-17T10:14:25.186Z,11100
2018-02-17T10:15:34.974Z,10696
2018-02-17T10:16:44.945Z,10472
2018-02-17T10:17:54.680Z,10700
2018-02-17T10:19:04.902Z,11272
2018-02-17T10:20:14.435Z,11644
2018-02-17T10:21:24.341Z,12064
2018-02-17T10:22:34.631Z,11908
2018-02-17T10:23:44.815Z,12492
2018-02-17T10:24:55.259Z,12776
2018-02-17T10:26:05.145Z,12500
2018-02-17T10:27:14.792Z,12576
2018-02-17T10:28:24.941Z,12520
2018-02-17T10:29:35.142Z,12876
2018-02-17T10:30:45.045Z,13568
2018-02-17T10:31:55.205Z,13596
2018-02-17T10:33:05.198Z,13804
2018-02-17T10:34:15.099Z,13996
2018-02-17T10:35:25.295Z,14504
2018-02-17T10:36:34.942Z,14816
2018-02-17T10:37:44.887Z,15488
2018-02-17T10:38:55.028Z,15904
2018-02-17T10:40:04.925Z,16416
2018-02-17T10:41:14.892Z,16096
2018-02-17T10:42:25.055Z,15488
2018-02-17T10:43:35.225Z,15200
2018-02-17T10:44:45.127Z,15008
2018-02-17T10:45:55.282Z,15488
2018-02-17T10:47:05.168Z,16352
2018-02-17T10:48:15.570Z,15808
2018-02-17T10:49:25.941Z,15168
2018-02-17T10:50:36.247Z,14912
2018-02-17T10:51:46.499Z,14376
2018-02-17T10:52:56.644Z,13876
2018-02-17T10:54:06.790Z,13420
2018-02-17T10:55:16.942Z,13376
2018-02-17T10:56:27.160Z,13144
2018-02-17T10:57:37.342Z,12660
2018-02-17T10:58:48.584Z,13256
2018-02-17T10:59:58.779Z,13352
2018-02-17T11:01:08.810Z,13736
2018-02-17T11:02:18.758Z,13864
2018-02-17T11:03:28.934Z,14064
2018-02-17T11:04:38.898Z,14044
2018-02-17T11:05:48.462Z,14068
2018-02-17T11:06:58.900Z,13756
2018-02-17T11:08:08.836Z,13216
2018-02-17T11:09:18.797Z,13508
2018-02-17T11:10:28.821Z,13352
2018-02-17T11:11:38.862Z,13732
2018-02-17T11:12:49.018Z,13760
2018-02-17T11:13:58.989Z,13836
2018-02-17T11:15:09.181Z,13596
2018-02-17T11:16:19.360Z,13928
2018-02-17T11:17:29.505Z,14328
2018-02-17T11:18:39.407Z,14296
2018-02-17T11:19:49.622Z,14640
2018-02-17T11:20:59.791Z,15072
2018-02-17T11:22:09.709Z,15520
2018-02-17T11:23:19.899Z,16576
2018-02-17T11:24:29.694Z,17312
2018-02-17T11:25:39.603Z,17440
2018-02-17T11:26:49.789Z,17504
2018-02-17T11:27:59.231Z,17408
2018-02-17T11:29:09.496Z,16576
2018-02-17T11:30:19.412Z,16704
2018-02-17T11:31:29.562Z,17600
2018-02-17T11:32:39.502Z,18720
2018-02-17T11:33:49.638Z,19840
2018-02-17T11:34:59.807Z,21920
2018-02-17T11:36:09.560Z,23520
2018-02-17T11:37:19.704Z,24224
2018-02-17T11:38:29.918Z,25440
2018-02-17T11:39:39.768Z,28128
2018-02-17T11:40:50.063Z,28352
2018-02-17T11:42:00.236Z,33504
2018-02-17T11:43:10.415Z,29504
2018-02-17T11:44:20.292Z,26976
2018-02-17T11:45:30.655Z,26304
2018-02-17T11:46:40.561Z,24512
2018-02-17T11:47:50.718Z,24448
2018-02-17T11:49:00.703Z,24832
2018-02-17T11:50:10.952Z,24928
2018-02-17T11:51:21.112Z,25280
2018-02-17T11:52:31.247Z,25568
2018-02-17T11:53:41.476Z,28000
2018-02-17T11:54:51.620Z,26336
2018-02-17T11:56:01.513Z,22368
2018-02-17T11:57:11.711Z,25440
2018-02-17T11:58:21.501Z,27808
2018-02-17T11:59:31.738Z,26848
2018-02-17T12:00:41.961Z,23264
2018-02-17T12:01:52.148Z,22048
2018-02-17T12:03:02.332Z,23360
2018-02-17T12:04:12.552Z,21184
2018-02-17T12:05:22.767Z,21312
2018-02-17T12:06:32.945Z,21792
2018-02-17T12:07:43.093Z,20384
2018-02-17T12:08:53.236Z,20288
2018-02-17T12:10:03.506Z,18592
2018-02-17T12:11:13.799Z,17856
2018-02-17T12:12:23.344Z,17216
2018-02-17T12:13:33.633Z,15904
2018-02-17T12:14:43.999Z,14944
2018-02-17T12:15:53.904Z,14816
2018-02-17T12:17:03.622Z,14188
2018-02-17T12:18:13.537Z,14132
2018-02-17T12:19:23.190Z,14752
2018-02-17T12:20:33.356Z,15072
2018-02-17T12:22:15.437Z,15072
2018-02-17T12:23:25.653Z,15616
2018-02-17T12:24:35.803Z,15616
2018-02-17T12:25:45.731Z,14816
2018-02-17T12:26:55.894Z,17504
2018-02-17T12:28:06.072Z,15232
2018-02-17T12:29:16.995Z,14200
2018-02-17T12:30:27.156Z,13564
2018-02-17T12:31:37.297Z,13180
2018-02-17T12:32:47.483Z,12884
2018-02-17T12:33:57.054Z,12136
2018-02-17T12:35:07.203Z,11884
2018-02-17T12:36:17.472Z,12848
2018-02-17T12:37:27.376Z,13208
2018-02-17T12:38:37.532Z,13056
2018-02-17T12:39:47.525Z,12604
2018-02-17T12:40:57.443Z,12824
2018-02-17T12:42:08.590Z,12544
2018-02-17T12:43:18.768Z,12572
2018-02-17T12:44:28.781Z,12524
2018-02-17T12:45:38.425Z,12380
2018-02-17T12:46:48.296Z,11996
2018-02-17T12:47:58.490Z,11516
2018-02-17T12:49:08.638Z,11684
2018-02-17T12:50:18.801Z,11544
2018-02-17T12:51:28.682Z,11732
2018-02-17T12:52:38.824Z,11912
2018-02-17T12:53:48.968Z,11924
2018-02-17T12:54:58.868Z,12236
2018-02-17T12:56:08.672Z,11812
2018-02-17T12:57:18.807Z,10424
2018-02-17T12:58:28.954Z,9672
2018-02-17T12:59:39.161Z,9780
2018-02-17T13:00:49.348Z,9892
2018-02-17T13:01:58.988Z,9984
2018-02-17T13:03:08.518Z,9636
2018-02-17T13:04:18.685Z,9488
2018-02-17T13:05:28.841Z,9364
2018-02-17T13:06:38.764Z,9172
2018-02-17T13:07:48.756Z,8988
2018-02-17T13:08:58.892Z,9040
2018-02-17T13:10:08.793Z,9048
2018-02-17T13:11:18.967Z,9112
2018-02-17T13:12:28.971Z,9264
2018-02-17T13:13:39.500Z,9040
2018-02-17T13:14:49.285Z,8820
2018-02-17T13:15:59.443Z,8588
2018-02-17T13:17:09.597Z,8500
2018-02-17T13:18:19.742Z,8880
2018-02-17T13:19:29.923Z,8520
2018-02-17T13:20:40.118Z,8808
2018-02-17T13:21:50.349Z,9428
2018-02-17T13:23:00.283Z,8576
2018-02-17T13:24:09.826Z,7900
2018-02-17T13:25:19.760Z,7732
2018-02-17T13:26:29.787Z,7880
2018-02-17T13:27:40.047Z,7772
2018-02-17T13:28:49.738Z,7788
2018-02-17T13:29:59.647Z,7472
2018-02-17T13:31:09.796Z,7084
2018-02-17T13:32:19.653Z,6932
2018-02-17T13:33:29.827Z,6892
2018-02-17T13:34:39.361Z,6872
2018-02-17T13:35:49.248Z,6668
2018-02-17T13:36:59.188Z,6552
2018-02-17T13:38:09.269Z,6640
2018-02-17T13:39:19.445Z,6724
2018-02-17T13:40:29.454Z,6560
2018-02-17T13:41:39.455Z,6628
2018-02-17T13:42:49.357Z,6488
2018-02-17T13:43:59.576Z,6256
2018-02-17T13:45:09.494Z,6004
2018-02-17T13:46:19.707Z,5876
2018-02-17T13:47:29.648Z,5848
2018-02-17T13:48:39.536Z,5852
2018-02-17T13:49:49.347Z,5796
2018-02-17T13:50:59.526Z,5680
2018-02-17T13:52:09.799Z,5748
2018-02-17T13:53:20.066Z,5756
2018-02-17T13:54:31.217Z,5828
2018-02-17T13:55:41.404Z,5988
2018-02-17T13:56:51.691Z,6184
2018-02-17T13:58:02.483Z,6224
2018-02-17T13:59:12.388Z,6092
2018-02-17T14:00:22.579Z,5864
2018-02-17T14:01:32.484Z,5676
2018-02-17T14:02:42.377Z,5512
2018-02-17T14:03:52.332Z,5436
2018-02-17T14:05:02.281Z,5408
2018-02-17T14:06:12.472Z,5336
2018-02-17T14:07:22.386Z,5288
2018-02-17T14:08:32.449Z,5208
2018-02-17T14:09:42.727Z,5136
2018-02-17T14:10:52.984Z,5120
2018-02-17T14:12:03.146Z,5080
2018-02-17T14:13:13.319Z,4840
2018-02-17T14:14:24.179Z,4712
2018-02-17T14:15:34.618Z,4784
2018-02-17T14:16:44.507Z,4892
2018-02-17T14:17:54.727Z,5004
2018-02-17T14:19:05.077Z,4968
2018-02-17T14:20:15.125Z,4868
2018-02-17T14:21:26.284Z,4692
2018-02-17T14:22:36.549Z,4436
2018-02-17T14:23:46.746Z,4136
2018-02-17T14:24:56.919Z,3820
2018-02-17T14:26:07.127Z,3560
2018-02-17T14:27:17.077Z,3308
2018-02-17T14:28:27.038Z,3080
2018-02-17T14:29:36.943Z,2936
2018-02-17T14:30:47.126Z,2812
2018-02-17T14:31:56.918Z,2800
2018-02-17T14:33:06.709Z,2860
2018-02-17T14:34:16.882Z,2892
2018-02-17T14:35:26.675Z,2864
2018-02-17T14:36:36.852Z,2768
2018-02-17T14:37:47.035Z,2684
2018-02-17T14:38:56.959Z,2648
2018-02-17T14:40:07.000Z,2644
2018-02-17T14:41:17.185Z,2620
2018-02-17T14:42:27.334Z,2572
2018-02-17T14:43:37.521Z,2536
2018-02-17T14:44:47.795Z,2524
2018-02-17T14:45:58.031Z,2492
2018-02-17T14:47:08.271Z,2424
2018-02-17T14:48:18.410Z,2340
2018-02-17T14:49:28.609Z,2252
2018-02-17T14:50:38.771Z,2148
2018-02-17T14:51:48.986Z,2032
2018-02-17T14:52:59.199Z,2012
2018-02-17T14:54:09.343Z,2016
2018-02-17T14:55:19.481Z,2024
2018-02-17T14:56:29.673Z,2008
2018-02-17T14:57:39.829Z,1960
2018-02-17T14:58:49.623Z,1912
2018-02-17T14:59:59.198Z,1948
2018-02-17T15:01:09.281Z,2064
2018-02-17T15:02:19.511Z,2212
2018-02-17T15:03:29.782Z,2288
2018-02-17T15:04:39.957Z,2308
2018-02-17T15:05:50.097Z,2312
2018-02-17T15:07:00.253Z,2320
2018-02-17T15:08:10.387Z,2336
2018-02-17T15:09:20.546Z,2336
2018-02-17T15:10:30.556Z,2324
2018-02-17T15:11:40.536Z,2332
2018-02-17T15:12:50.790Z,2356
2018-02-17T15:14:00.981Z,2364
2018-02-17T15:15:10.756Z,2344
2018-02-17T15:16:20.445Z,2304
2018-02-17T15:17:30.062Z,2268
2018-02-17T15:18:40.417Z,2236
2018-02-17T15:19:50.415Z,2204
2018-02-17T15:21:00.822Z,2156
2018-02-17T15:22:11.012Z,2088
2018-02-17T15:23:21.438Z,1988
2018-02-17T15:24:31.593Z,1876
2018-02-17T15:25:41.745Z,1760
2018-02-17T15:26:51.665Z,1632
2018-02-17T15:28:01.839Z,1508
2018-02-17T15:29:12.300Z,1404
2018-02-17T15:30:22.726Z,1356
2018-02-17T15:31:32.950Z,1328
2018-02-17T15:32:42.742Z,1336
2018-02-17T15:33:52.387Z,1360
2018-02-17T15:35:02.746Z,1380
2018-02-17T15:36:12.696Z,1388
2018-02-17T15:37:22.534Z,1396
2018-02-17T15:38:32.725Z,1372
2018-02-17T15:39:42.628Z,1316
2018-02-17T15:40:53.424Z,1260
2018-02-17T15:42:03.620Z,1228
2018-02-17T15:43:13.799Z,1212
2018-02-17T15:44:23.688Z,1176
2018-02-17T15:45:33.848Z,1132
2018-02-17T15:46:43.977Z,1092
2018-02-17T15:47:54.195Z,1060
2018-02-17T15:49:04.318Z,1008
2018-02-17T15:50:14.710Z,956
2018-02-17T15:51:25.171Z,912
2018-02-17T15:52:35.334Z,868
2018-02-17T15:53:45.232Z,832
2018-02-17T15:54:55.183Z,796
2018-02-17T15:56:05.079Z,756
2018-02-17T15:57:14.995Z,708
2018-02-17T15:58:25.165Z,656
2018-02-17T15:59:35.123Z,608
2018-02-17T16:00:45.371Z,556
2018-02-17T16:01:55.616Z,512
2018-02-17T16:03:05.605Z,472